1973 Severe Tropical Cyclone ERICA (1973363S18119)


IBTrACS version v04r00. Visit IBTrACS website for data access.
Please direct all questions to the IBTrACS Q and A forum

Storm track - Intensity - Wind Radii - Intensity Data - Source Data - All data

Summary Information

Storm ID 1973363S18119
Start Dec 29 01Z
Landfall Dec 31 21Z, Jan 1 00Z
Max Intensity 65 kt (Dec 31 00Z), 977 mb (Dec 31 06Z)
End Jan 5 01Z
ATCF IDs ,SH121974
Track status Best track data.

Storm track plot

Map of storm track

Intensity plots

Map of storm track

Radial wind information

No radial wind information for this storm


Position and Intensity Table

BASIN ISO_TIME_________ NATURE LAT LON WMO WIND WMO PRES BOM WIND BOM PRES DS824 WIND DS824 PRES NEUMANN WIND NEUMANN PRES
degrees north degrees east kts mb kts mb kts mb kts mb
SI 1973-12-29 01:00:00 NR -17.90 118.70 25 999 25 999
SI 03:00:00 NR -17.76 118.40 25 999
SI 04:00:00 NR -17.70 118.30 25 999 25 999
SI 06:00:00 TS -17.62 118.26 25 997 35 997
SI 07:00:00 TS -17.59 118.32 25 997 25 997 34 997
SI 09:00:00 TS -17.53 118.50 25 997 32 998
SI 10:00:00 TS -17.51 118.59 25 998 25 998 31 998
SI 12:00:00 TS -17.50 118.69 25 998 30 999
SI 13:00:00 TS -17.49 118.73 25 999 25 999 30 999
SI 15:00:00 TS -17.48 118.82 25 999 30 999
SI 16:00:00 TS -17.48 118.86 25 1000 25 1000 30 999
SI 18:00:00 TS -17.51 118.90 26 999 30 999
SI 21:00:00 TS -17.54 118.96 29 998 30 999
SI 22:00:00 TS -17.54 119.00 30 998 30 998 30 999
SI 1973-12-30 00:00:00 TS -17.52 118.84 30 998 30 999 40 995
SI 01:00:00 TS -17.56 118.71 30 999 30 999 32 997 41 994
SI 03:00:00 TS -17.64 118.55 30 996 37 995 45 992
SI 04:00:00 TS -17.71 118.45 30 995 30 995 39 993 46 991
SI 06:00:00 TS -17.85 118.39 36 992 45 991 50 989
SI 07:00:00 TS -17.92 118.37 40 991 40 991 45 990 50 988
SI 09:00:00 TS -18.04 118.30 43 989 47 989 52 986
SI 10:00:00 TS -18.10 118.27 45 989 45 989 48 988 53 985
SI 12:00:00 TS -18.19 118.22 45 987 50 987 55 984
SI 13:00:00 TS -18.23 118.19 45 987 45 987 50 986 55 983
SI 15:00:00 TS -18.31 118.11 48 985 52 984 57 982
SI 16:00:00 TS -18.34 118.07 50 985 50 985 53 983 58 982
SI 18:00:00 TS -18.41 117.99 50 982 55 982 60 981
SI 19:00:00 TS -18.44 117.96 50 982 50 982 55 981 60 980
SI 21:00:00 TS -18.53 117.87 50 980 57 981 62 979
SI 22:00:00 TS -18.58 117.82 50 980 50 980 58 980 63 979
SI 1973-12-31 00:00:00 TS -18.72 117.70 50 980 60 980 65 978
SI 01:00:00 TS -18.80 117.64 50 980 50 980 60 979 64 978
SI 03:00:00 TS -18.97 117.53 50 979 62 978 62 979
SI 04:00:00 TS -19.07 117.47 50 979 50 979 63 978 61 979
SI 06:00:00 TS -19.30 117.30 50 977 65 977 60 980
SI 07:00:00 TS -19.42 117.20 50 977 50 977 63 977 60 980
SI 09:00:00 TS -19.65 116.94 50 977 60 979 60 982
SI 10:00:00 TS -19.78 116.78 50 977 50 977 58 980 60 982
SI 12:00:00 TS -20.15 116.41 50 980 55 982 60 984
SI 13:00:00 TS -20.36 116.21 50 982 50 982 54 982 59 984
SI 15:00:00 TS -20.75 115.80 50 984 52 984 57 985
SI 16:00:00 TS -20.95 115.59 50 985 50 985 51 984 56 985
SI 18:00:00 TS -21.37 115.17 50 985 50 986 55 987
SI 19:00:00 TS -21.58 114.97 50 986 50 986 50 986 54 987
SI 21:00:00 TS -21.98 114.61 46 986 50 986 52 987
SI 22:00:00 TS -22.16 114.44 45 987 45 987 50 986 51 987
SI 1974-01-01 00:00:00 TS -22.47 114.10 45 987 50 986 50 988
SI 01:00:00 TS -22.59 113.95 45 988 45 988 50 986 49 988
SI 03:00:00 TS -22.78 113.67 45 988 50 986 47 989
SI 04:00:00 TS -22.85 113.55 45 988 45 988 50 986 46 989
SI 06:00:00 TS -22.97 113.29 45 987 50 987 45 990
SI 07:00:00 TS -23.01 113.16 45 987 45 987 49 987 45 990
SI 09:00:00 TS -23.08 112.91 45 987 47 989 45 991
SI 10:00:00 TS -23.11 112.79 45 988 45 988 46 989 45 991
SI 12:00:00 TS -23.14 112.54 45 990 45 991 45 992
SI 13:00:00 TS -23.17 112.40 45 991 45 991 44 991 44 992
SI 15:00:00 TS -23.20 112.12 41 992 42 992 42 992
SI 16:00:00 TS -23.21 111.97 40 993 40 993 41 992 41 992
SI 18:00:00 TS -23.20 111.66 40 993 40 993 40 993
SI 19:00:00 TS -23.19 111.51 40 993 40 993 40 993 40 993
SI 21:00:00 TS -23.15 111.19 40 993 40 993 40 994
SI 22:00:00 TS -23.12 111.02 40 994 40 994 40 993 40 994
SI 1974-01-02 00:00:00 TS -23.05 110.65 40 994 40 994 40 995
SI 01:00:00 TS -23.01 110.45 40 994 40 994 40 994 39 995
SI 03:00:00 TS -22.89 110.02 40 994 40 994 37 996
SI 04:00:00 TS -22.82 109.80 40 994 40 994 40 994 36 996
SI 06:00:00 TS -22.67 109.34 36 994 40 994 35 998
SI 07:00:00 TS -22.60 109.11 35 994 35 994 38 994 34 998
SI 09:00:00 TS -22.44 108.63 31 995 35 996 32 999
SI 10:00:00 TS -22.35 108.39 30 996 30 996 33 997 31 999
SI 12:00:00 TS -22.18 107.93 30 998 30 999 30 1000
SI 13:00:00 TS -22.10 107.71 30 999 30 999 30 999 29 1000
SI 15:00:00 TS -21.95 107.32 26 1001 30 1000 27 1001
SI 16:00:00 TS -21.88 107.14 25 1002 25 1002 30 1000 26 1001
SI 18:00:00 TS -21.73 106.77 25 1001 30 1001 25 1002
SI 19:00:00 TS -21.65 106.61 25 1001 25 1001 29 1001
SI 21:00:00 TS -21.53 106.24 25 1001 27 1002
SI 22:00:00 TS -21.50 106.08 25 1002 25 1002 26 1002
SI 1974-01-03 00:00:00 TS -21.37 105.73 25 1002 25 1003
SI 01:00:00 TS -21.41 105.62 25 1003 25 1003 25 1002
SI 03:00:00 TS -21.35 105.50 25 1003 25 1002
SI 04:00:00 TS -21.31 105.41 25 1003 25 1003 25 1002
SI 06:00:00 TS -21.12 104.89 25 1002 25 1002
SI 07:00:00 TS -21.01 104.60 25 1002 25 1002 23 1002
SI 09:00:00 TS -20.86 104.20 25 1002 20 1004
SI 10:00:00 TS -20.79 104.02 25 1003 25 1003 18 1004
SI 12:00:00 TS -20.60 103.60 25 1005 15 1006
SI 13:00:00 TS -20.51 103.40 25 1006 25 1006 15 1006
SI 15:00:00 TS -20.36 103.05 21 1007 15 1006
SI 16:00:00 TS -20.28 102.87 20 1008 20 1008 15 1006
SI 18:00:00 TS -20.10 102.50 20 1007 15 1007
SI 19:00:00 TS -20.01 102.32 20 1007 20 1007 15 1007
SI 21:00:00 TS -19.82 101.99 20 1007 15 1007
SI 22:00:00 TS -19.73 101.83 20 1007 20 1007 15 1007
SI 1974-01-04 00:00:00 TS -19.58 101.49 20 1007 15 1008
SI 01:00:00 TS -19.51 101.30 20 1008 20 1008 15 1007
SI 03:00:00 TS -19.32 100.89 20 1008 15 1007
SI 04:00:00 TS -19.23 100.67 20 1008 20 1008 15 1006
SI 06:00:00 TS -19.08 100.22 20 1006 15 1006
SI 07:00:00 TS -19.01 99.99 20 1006 20 1006 15 1006
SI 09:00:00 TS -18.88 99.54 20 1006 15 1006
SI 10:00:00 TS -18.81 99.32 20 1006 20 1006 15 1006
SI 12:00:00 TS -18.68 98.90 20 1006 15 1007
SI 13:00:00 TS -18.62 98.69 20 1007 20 1007 15 1007
SI 15:00:00 TS -18.48 98.24 20 1007 15 1007
SI 16:00:00 TS -18.41 98.02 20 1007 20 1007 15 1007
SI 18:00:00 TS -18.28 97.60 20 1007 15 1007
SI 19:00:00 TS -18.22 97.39 20 1007 20 1007 15 1007
SI 21:00:00 TS -18.13 96.93 20 1008 15 1009
SI 22:00:00 TS -18.10 96.69 20 1009 20 1009 15 1009
SI 1974-01-05 00:00:00 TS -18.02 96.22 20 1010 15 1011
SI 01:00:00 NR -18.00 96.00 20 1011 20 1011

Source Information

Agency Information
USA bsh121974.txt
TOKYO
CMA
HKO
NEWDELHI
REUNION
BOM IDCKMSTM0S.csv:Line=8500:ERICA
NADI
WELLINGTON
DS824 aus_area.dat:513:ERICA
TD9636 cons_worldwide_trop_cyclone_18710101-19891231-006:Line=9440
TD9635
NEUMANN tracks.sh:Storm=389:ERICA:BSH1274:BM432
MLC

All available IBTrACS Data

SEASON BASIN SUBBASIN ISO_TIME_________ NATURE LAT LON WMO WIND WMO PRES WMO AGENCY DIST2LAND LANDFALL IFLAG USA AGENCY USA ATCF_ID USA LAT USA LON USA SSHS BOM LAT BOM LON BOM TYPE BOM WIND BOM PRES BOM CI DS824 LAT DS824 LON DS824 STAGE DS824 WIND DS824 PRES TD9636 LAT TD9636 LON TD9636 STAGE NEUMANN LAT NEUMANN LON NEUMANN CLASS NEUMANN WIND NEUMANN PRES STORM SPEED STORM DIR
Year degrees north degrees east kts mb km km degrees north degrees east 1 degrees north degrees east kts mb 1 degrees north degrees east kts mb degrees north degrees east degrees north degrees east kts mb kts degrees
1974 SI WA 1973-12-29 01:00:00 NR -17.90 118.70 25 999 bom 249 249 ______O_______ -1 -17.90 118.70 20 25 999 1.50 10 297
1974 SI WA 03:00:00 NR -17.76 118.40 267 278 ______P_______ -1 -17.76 118.40 20 25 999 9 298
1974 SI WA 04:00:00 NR -17.70 118.30 25 999 bom 281 281 ______O_______ -1 -17.70 118.30 20 25 999 1.50 4 315
1974 SI WA 06:00:00 TS -17.62 118.26 292 292 ______P__O____ -1 -17.63 118.25 20 25 997 -17.60 118.30 TC 35 997 2 0
1974 SI WA 07:00:00 TS -17.59 118.32 25 997 bom 292 289 ______O__P____ -1 -17.60 118.30 20 25 997 2.00 -17.58 118.37 TC 34 997 5 69
1974 SI WA 09:00:00 TS -17.53 118.50 297 295 ______P__P____ -1 -17.53 118.50 20 25 997 -17.55 118.51 TC 32 998 5 72
1974 SI WA 10:00:00 TS -17.51 118.59 25 998 bom 295 293 ______O__P____ -1 -17.50 118.60 20 25 998 2.00 -17.53 118.57 TC 31 998 4 78
1974 SI WA 12:00:00 TS -17.50 118.69 293 293 ______P__O____ -1 -17.49 118.68 20 25 998 -17.50 118.70 TC 30 999 3 82
1974 SI WA 13:00:00 TS -17.49 118.73 25 999 bom 293 292 ______O__P____ -1 -17.50 118.70 20 25 999 2.00 -17.49 118.76 TC 30 999 2 84
1974 SI WA 15:00:00 TS -17.48 118.82 292 291 ______P__P____ -1 -17.50 118.77 20 25 999 -17.47 118.87 TC 30 999 2 85
1974 SI WA 16:00:00 TS -17.48 118.86 25 1000 bom 291 291 ______O__P____ -1 -17.50 118.80 20 25 1000 2.00 -17.47 118.91 TC 30 999 2 108
1974 SI WA 18:00:00 TS -17.51 118.90 291 291 ______P__P____ -1 -17.56 118.81 20 26 999 -17.46 118.99 TC 30 999 1 123
1974 SI WA 21:00:00 TS -17.54 118.96 291 291 ______P__P____ -1 -17.62 118.85 20 29 998 -17.47 119.07 TC 30 999 1 108
1974 SI WA 22:00:00 TS -17.54 119.00 30 998 bom 291 291 ______O__P____ -1 -17.60 118.90 20 30 998 2.50 -17.48 119.09 TC 30 999 2 282
1974 SI WA 1973-12-30 00:00:00 TS -17.52 118.84 292 282 O_____P__OO_O_ jtwc_sh SH121974 -17.60 118.00 -1 -17.47 119.13 20 30 998 -17.50 119.10 TC 30 999 -17.60 118.00 4 -17.60 119.20 TC 40 995 6 266
1974 SI WA 01:00:00 TS -17.56 118.71 30 999 bom 282 282 P_____O__PP_P_ SH121974 -17.67 117.97 -1 -17.40 119.20 20 30 999 2.50 -17.50 119.09 TC 32 997 -17.67 117.96 4 -17.65 119.17 TC 41 994 6 248
1974 SI WA 03:00:00 TS -17.64 118.55 286 275 P_____P__PP_P_ SH121974 -17.81 117.90 -1 -17.29 119.08 20 30 996 -17.52 119.06 TC 37 995 -17.82 117.88 4 -17.74 119.11 TC 45 992 6 238
1974 SI WA 04:00:00 TS -17.71 118.45 30 995 bom 278 267 P_____O__PP_P_ SH121974 -17.87 117.87 -1 -17.30 119.00 20 30 995 2.50 -17.54 119.04 TC 39 993 -17.89 117.84 4 -17.79 119.07 TC 46 991 5 215
1974 SI WA 06:00:00 TS -17.85 118.39 267 256 O_____P__OP_O_ jtwc_sh SH121974 -18.00 117.80 -1 -17.56 119.00 20 36 992 -17.60 119.00 TC 45 991 -18.02 117.76 4 -17.90 119.00 TC 50 989 4 201
1974 SI WA 07:00:00 TS -17.92 118.37 40 991 bom 256 246 P_____O__PP_P_ SH121974 -18.06 117.76 -1 -17.70 119.00 30 40 991 3.00 -17.65 118.99 TC 45 990 -18.08 117.73 4 -17.96 118.96 TC 50 988 4 204
1974 SI WA 09:00:00 TS -18.04 118.30 249 239 P_____P__PP_P_ SH121974 -18.17 117.69 -1 -17.85 118.93 30 43 989 -17.78 118.96 TC 47 989 -18.19 117.67 4 -18.09 118.87 TC 52 986 4 207
1974 SI WA 10:00:00 TS -18.10 118.27 45 989 bom 239 232 P_____O__PP_P_ SH121974 -18.22 117.66 -1 -17.90 118.90 30 45 989 3.00 -17.86 118.95 TC 48 988 -18.23 117.64 4 -18.16 118.82 TC 53 985 3 207
1974 SI WA 12:00:00 TS -18.19 118.22 232 232 O_____P__OO_O_ jtwc_sh SH121974 -18.30 117.60 -1 -17.96 118.91 30 45 987 -18.00 118.90 TC 50 987 -18.30 117.60 4 -18.30 118.70 TC 55 984 3 210
1974 SI WA 13:00:00 TS -18.23 118.19 45 987 bom 232 222 P_____O__PP_P_ SH121974 -18.33 117.58 -1 -18.00 118.90 30 45 987 3.00 -18.05 118.87 TC 50 986 -18.32 117.58 4 -18.37 118.62 TC 55 983 3 222
1974 SI WA 15:00:00 TS -18.31 118.11 227 227 P_____P__PP_P_ SH121974 -18.36 117.55 -1 -18.14 118.77 30 48 985 -18.15 118.78 TC 52 984 -18.35 117.56 4 -18.50 118.44 TC 57 982 3 227
1974 SI WA 16:00:00 TS -18.34 118.07 50 985 bom 227 217 P_____O__PP_P_ SH121974 -18.37 117.54 -1 -18.20 118.70 30 50 985 3.50 -18.20 118.73 TC 53 983 -18.36 117.55 4 -18.57 118.35 TC 58 982 3 226
1974 SI WA 18:00:00 TS -18.41 117.99 222 222 O_____P__OP_O_ jtwc_sh SH121974 -18.40 117.50 -1 -18.26 118.64 30 50 982 -18.30 118.60 TC 55 982 -18.38 117.52 4 -18.70 118.20 TC 60 981 3 227
1974 SI WA 19:00:00 TS -18.44 117.96 50 982 bom 222 213 P_____O__PP_P_ SH121974 -18.41 117.48 -1 -18.30 118.60 30 50 982 3.50 -18.36 118.52 TC 55 981 -18.40 117.50 4 -18.76 118.17 TC 60 980 3 225
1974 SI WA 21:00:00 TS -18.53 117.87 213 203 P_____P__PP_P_ SH121974 -18.45 117.43 -1 -18.42 118.41 30 50 980 -18.49 118.34 TC 57 981 -18.45 117.45 4 -18.88 118.16 TC 62 979 4 225
1974 SI WA 22:00:00 TS -18.58 117.82 50 980 bom 203 194 P_____O__PP_P_ SH121974 -18.49 117.40 -1 -18.50 118.30 30 50 980 3.50 -18.56 118.25 TC 58 980 -18.49 117.41 4 -18.95 118.15 TC 63 979 5 220
1974 SI WA 1973-12-31 00:00:00 TS -18.72 117.70 194 183 O_____P__OO_O_ jtwc_sh SH121974 -18.60 117.30 -1 -18.70 118.08 30 50 980 -18.70 118.10 TC 60 980 -18.60 117.30 4 -19.10 118.10 TC 65 978 6 217
1974 SI WA 01:00:00 TS -18.80 117.64 50 980 bom 186 168 P_____O__PP_P_ SH121974 -18.68 117.24 -1 -18.80 118.00 30 50 980 3.50 -18.76 118.08 TC 60 979 -18.68 117.23 4 -19.17 118.05 TC 64 978 6 211
1974 SI WA 03:00:00 TS -18.97 117.53 168 158 P_____P__PP_P_ SH121974 -18.90 117.10 -1 -18.94 117.98 30 50 979 -18.88 118.06 TC 62 978 -18.89 117.05 4 -19.34 117.90 TC 62 979 6 211
1974 SI WA 04:00:00 TS -19.07 117.47 50 979 bom 158 148 P_____O__PP_P_ SH121974 -19.02 117.01 -1 -19.00 118.00 30 50 979 3.50 -18.95 118.06 TC 63 978 -19.00 116.94 4 -19.44 117.79 TC 61 979 8 213
1974 SI WA 06:00:00 TS -19.30 117.30 148 138 O_____P__OP_O_ jtwc_sh SH121974 -19.30 116.80 -1 -19.15 118.02 30 50 977 -19.10 118.00 TC 65 977 -19.27 116.71 4 -19.70 117.50 TC 60 980 9 217
1974 SI WA 07:00:00 TS -19.42 117.20 50 977 bom 140 112 P_____O__PP_P_ SH121974 -19.43 116.67 -1 -19.20 118.00 30 50 977 3.50 -19.17 117.94 TC 63 977 -19.41 116.59 4 -19.86 117.32 TC 60 980 10 225
1974 SI WA 09:00:00 TS -19.65 116.94 112 89 P_____P__PP_P_ SH121974 -19.72 116.38 -1 -19.15 117.92 30 50 977 -19.33 117.76 TC 60 979 -19.71 116.32 4 -20.24 116.87 TC 60 982 11 227
1974 SI WA 10:00:00 TS -19.78 116.78 50 977 bom 89 54 P_____O__PP_P_ SH121974 -19.87 116.22 -1 -19.20 117.80 30 50 977 3.50 -19.43 117.64 TC 58 980 -19.87 116.18 4 -20.45 116.62 TC 60 982 14 224
1974 SI WA 12:00:00 TS -20.15 116.41 54 53 O_____P__OO_O_ jtwc_sh SH121974 -20.20 115.90 -1 -19.71 117.37 30 50 980 -19.70 117.30 TC 55 982 -20.20 115.90 4 -20.90 116.10 TC 60 984 16 223
1974 SI WA 13:00:00 TS -20.36 116.21 50 982 bom 53 35 P_____O__PP_P_ SH121974 -20.37 115.75 -1 -20.00 117.10 30 50 982 3.50 -19.88 117.08 TC 54 982 -20.38 115.76 4 -21.14 115.84 TC 59 984 17 224
1974 SI WA 15:00:00 TS -20.75 115.80 35 30 P_____P__PP_P_ SH121974 -20.74 115.45 -1 -20.33 116.58 30 50 984 -20.31 116.55 TC 52 984 -20.75 115.48 4 -21.64 115.31 TC 57 985 17 224
1974 SI WA 16:00:00 TS -20.95 115.59 50 985 bom 30 22 P_____O__PP_P_ SH121974 -20.93 115.30 -1 -20.50 116.30 30 50 985 3.50 -20.54 116.26 TC 51 984 -20.94 115.33 4 -21.88 115.06 TC 56 985 17 224
1974 SI WA 18:00:00 TS -21.37 115.17 22 15 O_____P__OP_O_ jtwc_sh SH121974 -21.30 115.00 -1 -21.01 115.69 30 50 985 -21.00 115.70 TC 50 986 -21.32 115.02 4 -22.30 114.60 TC 55 987 17 223
1974 SI WA 19:00:00 TS -21.58 114.97 50 986 bom 11 0 P_____O__PP_P_ SH121974 -21.49 114.85 -1 -21.30 115.40 30 50 986 3.50 -21.22 115.46 TC 50 986 -21.50 114.87 4 -22.47 114.41 TC 54 987 16 221
1974 SI WA 21:00:00 TS -21.98 114.61 0 0 P_____P__PP_P_ SH121974 -21.84 114.55 -1 -21.92 114.92 30 46 986 -21.65 115.01 TC 50 986 -21.86 114.56 4 -22.74 114.08 TC 52 987 15 220
1974 SI WA 22:00:00 TS -22.16 114.44 45 987 bom 10 0 P_____O__PP_P_ SH121974 -22.01 114.40 -1 -22.20 114.70 30 45 987 -21.86 114.80 TC 50 986 -22.02 114.41 4 -22.84 113.94 TC 51 987 14 224
1974 SI WA 1974-01-01 00:00:00 TS -22.47 114.10 0 0 O_____P__PO_O_ jtwc_sh SH121974 -22.30 114.10 -1 -22.65 114.20 30 45 987 -22.26 114.41 TC 50 986 -22.30 114.10 4 -23.00 113.70 TC 50 988 13 226
1974 SI WA 01:00:00 TS -22.59 113.95 45 988 bom 0 0 P_____O__PP_P_ SH121974 -22.42 113.95 -1 -22.80 114.00 30 45 988 -22.44 114.23 TC 50 986 -22.42 113.95 4 -23.06 113.59 TC 49 988 10 232
1974 SI WA 03:00:00 TS -22.78 113.67 10 10 P_____P__PP_P_ SH121974 -22.61 113.64 -1 -22.96 113.78 30 45 988 -22.76 113.91 TC 50 986 -22.61 113.66 4 -23.14 113.40 TC 47 989 9 235
1974 SI WA 04:00:00 TS -22.85 113.55 45 988 bom 30 30 P_____O__PP_P_ SH121974 -22.68 113.49 -1 -23.00 113.70 30 45 988 3.00 -22.89 113.76 TC 50 986 -22.69 113.52 4 -23.17 113.31 TC 46 989 8 243
1974 SI WA 06:00:00 TS -22.97 113.29 51 51 O_____P__OP_O_ jtwc_sh SH121974 -22.80 113.20 -1 -23.07 113.50 30 45 987 -23.10 113.50 TC 50 987 -22.82 113.23 4 -23.20 113.10 TC 45 990 8 246
1974 SI WA 07:00:00 TS -23.01 113.16 45 987 bom 60 60 P_____O__PP_P_ SH121974 -22.86 113.06 -1 -23.10 113.40 30 45 987 3.00 -23.17 113.39 TC 49 987 -22.87 113.09 4 -23.22 112.97 TC 45 990 7 251
1974 SI WA 09:00:00 TS -23.08 112.91 90 90 P_____P__PP_P_ SH121974 -22.94 112.79 -1 -23.17 113.20 30 45 987 -23.25 113.20 TC 47 989 -22.95 112.81 4 -23.26 112.69 TC 45 991 7 254
1974 SI WA 10:00:00 TS -23.11 112.79 45 988 bom 99 99 P_____O__PP_P_ SH121974 -22.97 112.66 -1 -23.20 113.10 30 45 988 3.00 -23.27 113.11 TC 46 989 -22.97 112.67 4 -23.27 112.53 TC 45 991 7 260
1974 SI WA 12:00:00 TS -23.14 112.54 125 125 O_____P__OO_O_ jtwc_sh SH121974 -23.00 112.40 -1 -23.27 112.92 30 45 990 -23.30 112.90 TC 45 991 -23.00 112.40 4 -23.30 112.20 TC 45 992 7 260
1974 SI WA 13:00:00 TS -23.17 112.40 45 991 bom 136 136 P_____O__PP_P_ SH121974 -23.02 112.27 -1 -23.30 112.80 30 45 991 3.00 -23.32 112.77 TC 44 991 -23.02 112.28 4 -23.33 112.03 TC 44 992 8 261
1974 SI WA 15:00:00 TS -23.20 112.12 162 162 P_____P__PP_P_ SH121974 -23.03 112.00 -1 -23.37 112.48 30 41 992 -23.36 112.49 TC 42 992 -23.04 112.05 4 -23.38 111.67 TC 42 992 8 264
1974 SI WA 16:00:00 TS -23.21 111.97 40 993 bom 171 171 P_____O__PP_P_ SH121974 -23.03 111.87 -1 -23.40 112.30 30 40 993 3.00 -23.38 112.34 TC 41 992 -23.03 111.93 4 -23.40 111.49 TC 41 992 8 270
1974 SI WA 18:00:00 TS -23.20 111.66 199 208 O_____P__OP_O_ jtwc_sh SH121974 -23.00 111.60 -1 -23.41 111.97 30 40 993 -23.40 112.00 TC 40 993 -23.01 111.70 4 -23.40 111.10 TC 40 993 8 273
1974 SI WA 19:00:00 TS -23.19 111.51 40 993 bom 218 218 P_____O__PP_P_ SH121974 -22.98 111.48 -1 -23.40 111.80 30 40 993 3.00 -23.41 111.82 TC 40 993 -22.99 111.57 4 -23.38 110.91 TC 40 993 9 277
1974 SI WA 21:00:00 TS -23.15 111.19 247 250 P_____P__PP_P_ SH121974 -22.93 111.25 -1 -23.40 111.41 30 40 993 -23.43 111.42 TC 40 993 -22.93 111.30 4 -23.29 110.51 TC 40 994 9 278
1974 SI WA 22:00:00 TS -23.12 111.02 40 994 bom 270 270 P_____O__PP_P_ SH121974 -22.89 111.11 -1 -23.40 111.20 30 40 994 3.00 -23.43 111.22 TC 40 993 -22.89 111.14 4 -23.24 110.31 TC 40 994 10 281
1974 SI WA 1974-01-02 00:00:00 TS -23.05 110.65 299 310 O_____P__OO_O_ jtwc_sh SH121974 -22.80 110.80 -1 -23.42 110.80 30 40 994 -23.40 110.80 TC 40 994 -22.80 110.80 4 -23.10 109.90 TC 40 995 11 282
1974 SI WA 01:00:00 TS -23.01 110.45 40 994 bom 320 320 P_____O__PP_P_ SH121974 -22.74 110.61 -1 -23.40 110.60 30 40 994 3.00 -23.37 110.60 TC 40 994 -22.76 110.59 4 -23.03 109.70 TC 39 995 12 286
1974 SI WA 03:00:00 TS -22.89 110.02 370 370 P_____P__PP_P_ SH121974 -22.61 110.16 -1 -23.28 110.20 30 40 994 -23.29 110.20 TC 40 994 -22.65 110.12 4 -22.86 109.31 TC 37 996 13 288
1974 SI WA 04:00:00 TS -22.82 109.80 40 994 bom 390 390 P_____O__PP_P_ SH121974 -22.54 109.91 -1 -23.20 110.00 30 40 994 3.00 -23.24 110.00 TC 40 994 -22.59 109.87 4 -22.78 109.11 TC 36 996 13 289
1974 SI WA 06:00:00 TS -22.67 109.34 441 441 O_____P__OP_O_ jtwc_sh SH121974 -22.40 109.40 -1 -23.07 109.60 30 36 994 -23.10 109.60 TC 40 994 -22.46 109.34 4 -22.60 108.70 TC 35 998 14 289
1974 SI WA 07:00:00 TS -22.60 109.11 35 994 bom 461 461 P_____O__PP_P_ SH121974 -22.34 109.13 -1 -23.00 109.40 30 35 994 3.00 -23.01 109.40 TC 38 994 -22.39 109.08 4 -22.52 108.49 TC 34 998 14 290
1974 SI WA 09:00:00 TS -22.44 108.63 513 513 P_____P__PP_P_ SH121974 -22.21 108.59 -1 -22.81 109.00 30 31 995 -22.81 109.01 TC 35 996 -22.24 108.55 4 -22.35 108.06 TC 32 999 14 291
1974 SI WA 10:00:00 TS -22.35 108.39 30 996 bom 534 534 P_____O__PP_P_ SH121974 -22.14 108.31 -1 -22.70 108.80 20 30 996 2.50 -22.70 108.81 TC 33 997 -22.16 108.29 4 -22.27 107.84 TC 31 999 14 292
1974 SI WA 12:00:00 TS -22.18 107.93 587 587 O_____P__OO_O_ jtwc_sh SH121974 -22.00 107.80 -1 -22.49 108.40 20 30 998 -22.50 108.40 TC 30 999 -22.00 107.80 4 -22.10 107.40 TC 30 1000 14 292
1974 SI WA 13:00:00 TS -22.10 107.71 30 999 bom 609 609 P_____O__PP_P_ SH121974 -21.92 107.57 -1 -22.40 108.20 20 30 999 2.50 -22.43 108.19 TC 30 999 -21.92 107.57 4 -22.02 107.18 TC 29 1000 12 292
1974 SI WA 15:00:00 TS -21.95 107.32 651 652 P_____P__PP_P_ SH121974 -21.76 107.16 -1 -22.26 107.81 20 26 1001 -22.30 107.76 TC 30 1000 -21.75 107.15 4 -21.85 106.75 TC 27 1001 12 293
1974 SI WA 16:00:00 TS -21.88 107.14 25 1002 bom 673 673 P_____O__PP_P_ SH121974 -21.67 106.96 -1 -22.20 107.60 20 25 1002 2.00 -22.24 107.54 TC 30 1000 -21.67 106.95 4 -21.77 106.53 TC 26 1001 11 294
1974 SI WA 18:00:00 TS -21.73 106.77 707 717 O_____P__OP_O_ jtwc_sh SH121974 -21.50 106.60 -1 -22.07 107.14 20 25 1001 -22.10 107.10 TC 30 1001 -21.50 106.59 4 -21.60 106.10 TC 25 1002 11 295
1974 SI WA 19:00:00 TS -21.65 106.61 25 1001 bom 727 727 P_____O__PP___ SH121974 -21.42 106.43 -1 -22.00 106.90 20 25 1001 2.00 -22.01 106.87 TC 29 1001 -21.42 106.41 4 TC 11 292
1974 SI WA 21:00:00 TS -21.53 106.24 772 772 P_____P__PP___ SH121974 -21.25 106.09 -1 -21.88 106.43 20 25 1001 -21.80 106.42 TC 27 1002 -21.25 106.08 4 TC 10 287
1974 SI WA 22:00:00 TS -21.50 106.08 25 1002 bom 782 782 P_____O__PP___ SH121974 -21.17 105.93 -1 -21.80 106.20 20 25 1002 2.00 -21.70 106.20 TC 26 1002 -21.17 105.92 4 TC 10 288
1974 SI WA 1974-01-03 00:00:00 TS -21.37 105.73 825 825 O_____P__OO___ jtwc_sh SH121974 -21.00 105.60 -1 -21.51 105.75 20 25 1002 -21.50 105.80 TC 25 1003 -21.00 105.60 4 9 281
1974 SI WA 01:00:00 TS -21.41 105.62 25 1003 bom 835 835 ______O__P____ SH121974 -1 -21.40 105.60 20 25 1003 2.00 -21.42 105.64 TC 25 1002 4 4 275
1974 SI WA 03:00:00 TS -21.35 105.50 845 847 ______P__P____ SH121974 -1 -21.41 105.65 20 25 1003 -21.29 105.35 TC 25 1002 4 4 296
1974 SI WA 04:00:00 TS -21.31 105.41 25 1003 bom 857 857 ______O__P____ SH121974 -1 -21.40 105.60 20 25 1003 2.00 -21.23 105.21 TC 25 1002 4 12 292
1974 SI WA 06:00:00 TS -21.12 104.89 913 923 ______P__O____ -1 -21.14 104.88 20 25 1002 -21.10 104.90 TC 25 1002 4 16 292
1974 SI WA 07:00:00 TS -21.01 104.60 25 1002 bom 945 945 ______O__P____ -1 -21.00 104.50 20 25 1002 1.50 -21.02 104.70 TC 23 1002 4 14 292
1974 SI WA 09:00:00 TS -20.86 104.20 988 991 ______P__P____ -1 -20.86 104.14 20 25 1002 -20.86 104.26 TC 20 1004 4 12 293
1974 SI WA 10:00:00 TS -20.79 104.02 25 1003 bom 1011 1011 ______O__P____ -1 -20.80 104.00 20 25 1003 1.50 -20.77 104.04 TC 18 1004 4 12 295
1974 SI WA 12:00:00 TS -20.60 103.60 1057 1057 ______P__O____ -1 -20.60 103.60 20 25 1005 -20.60 103.60 TC 15 1006 13 296
1974 SI WA 13:00:00 TS -20.51 103.40 25 1006 bom 1080 1080 ______O__P____ -1 -20.50 103.40 20 25 1006 1.50 -20.52 103.40 TC 15 1006 11 295
1974 SI WA 15:00:00 TS -20.36 103.05 1123 1126 ______P__P____ -1 -20.37 103.07 20 21 1007 -20.35 103.03 TC 15 1006 11 295
1974 SI WA 16:00:00 TS -20.28 102.87 20 1008 bom 1136 1136 ______O__P____ -1 -20.30 102.90 20 20 1008 1.00 -20.27 102.85 TC 15 1006 12 296
1974 SI WA 18:00:00 TS -20.10 102.50 1182 1182 ______P__O____ -1 -20.11 102.50 20 20 1007 -20.10 102.50 TC 15 1007 12 298
1974 SI WA 19:00:00 TS -20.01 102.32 20 1007 bom 1205 1205 ______O__P____ -1 -20.00 102.30 20 20 1007 1.00 -20.02 102.34 TC 15 1007 11 300
1974 SI WA 21:00:00 TS -19.82 101.99 1241 1241 ______P__P____ -1 -19.79 101.96 20 20 1007 -19.85 102.02 TC 15 1007 11 301
1974 SI WA 22:00:00 TS -19.73 101.83 20 1007 bom 1265 1265 ______O__P____ -1 -19.70 101.80 20 20 1007 1.00 -19.77 101.85 TC 15 1007 11 297
1974 SI WA 1974-01-04 00:00:00 TS -19.58 101.49 1298 1298 ______P__O____ -1 -19.57 101.47 20 20 1007 -19.60 101.50 TC 15 1008 11 294
1974 SI WA 01:00:00 TS -19.51 101.30 20 1008 bom 1321 1321 ______O__P____ -1 -19.50 101.30 20 20 1008 1.00 -19.51 101.30 TC 15 1007 12 295
1974 SI WA 03:00:00 TS -19.32 100.89 1368 1368 ______P__P____ -1 -19.30 100.91 20 20 1008 -19.34 100.87 TC 15 1007 13 295
1974 SI WA 04:00:00 TS -19.23 100.67 20 1008 bom 1392 1392 ______O__P____ -1 -19.20 100.70 20 20 1008 1.00 -19.26 100.65 TC 15 1006 14 291
1974 SI WA 06:00:00 TS -19.08 100.22 1445 1445 ______P__O____ -1 -19.06 100.24 20 20 1006 -19.10 100.20 TC 15 1006 14 288
1974 SI WA 07:00:00 TS -19.01 99.99 20 1006 bom 1468 1468 ______O__P____ -1 -19.00 100.00 20 20 1006 1.00 -19.03 99.98 TC 15 1006 14 287
1974 SI WA 09:00:00 TS -18.88 99.54 1488 1483 ______P__P____ -1 -18.87 99.53 20 20 1006 -18.89 99.55 TC 15 1006 13 287
1974 SI WA 10:00:00 TS -18.81 99.32 20 1006 bom 1487 1487 ______O__P____ -1 -18.80 99.30 20 20 1006 1.00 -18.83 99.33 TC 15 1006 13 288
1974 SI WA 12:00:00 TS -18.68 98.90 1496 1492 ______P__O____ -1 -18.67 98.90 20 20 1006 -18.70 98.90 TC 15 1007 12 289
1974 SI WA 13:00:00 TS -18.62 98.69 20 1007 bom 1497 1497 ______O__P____ -1 -18.60 98.70 20 20 1007 1.00 -18.63 98.69 TC 15 1007 13 288
1974 SI WA 15:00:00 TS -18.48 98.24 1513 1509 ______P__P____ -1 -18.47 98.23 20 20 1007 -18.49 98.26 TC 15 1007 13 288
1974 SI WA 16:00:00 TS -18.41 98.02 20 1007 bom 1515 1515 ______O__P____ -1 -18.40 98.00 20 20 1007 1.00 -18.43 98.04 TC 15 1007 13 288
1974 SI WA 18:00:00 TS -18.28 97.60 1528 1525 ______P__O____ -1 -18.26 97.60 20 20 1007 -18.30 97.60 TC 15 1007 13 288
1974 SI WA 19:00:00 TS -18.22 97.39 20 1007 bom 1531 1531 ______O__P____ -1 -18.20 97.40 20 20 1007 1.00 -18.24 97.37 TC 15 1007 13 283
1974 SI WA 21:00:00 TS -18.13 96.93 1552 1552 ______P__P____ -1 -18.13 96.94 20 20 1008 -18.14 96.91 TC 15 1009 13 281
1974 SI WA 22:00:00 TS -18.10 96.69 20 1009 bom 1565 1565 ______O__P____ -1 -18.10 96.70 20 20 1009 1.00 -18.09 96.67 TC 15 1009 14 279
1974 SI WA 1974-01-05 00:00:00 TS -18.02 96.22 1589 1589 ______P__O____ -1 -18.04 96.23 20 20 1010 -18.00 96.20 TC 15 1011 13 278
1974 SI WA 01:00:00 NR -18.00 96.00 20 1011 bom 1602 ______O_______ -1 -18.00 96.00 20 20 1011 1.00 TC 13 276